Flight Track Log - Related Links

Times and Time Zones

All times are in EDT time to prevent confusion due to time zone crossing. See the JBU1329 flight status page for this flight to view local times or setup timezone preferences in your user account.

Time Position Orientation Groundspeed Altitude Reporting Facility
EDT Latitude Longitude Course Direction KTS MPH feet Rate Location/Type
Fri 09:24:39 AM 42.3667 -70.9667 240° Southwest 141 162 800  Level KA90
Fri 09:26:59 AM 42.3908 -70.8153 78° East 216 249 5,100 2,100 Climbing Boston Center
Fri 09:27:00 AM 42.2975 -70.7205 228° Southwest  Level FlightAware Approximate
Fri 09:27:59 AM 42.3583 -70.7261 116° Southeast 237 273 7,800  Level Boston Center
Fri 09:28:00 AM 42.2340 -70.8157 228° Southwest  Level FlightAware Approximate
Fri 09:28:59 AM 42.2792 -70.7283 181° South 210 242 10,700  Level Boston Center
Fri 09:29:00 AM 42.1863 -70.9265 240° Southwest  Level FlightAware Approximate
Fri 09:29:59 AM 42.2389 -70.8247 241° Southwest 198 228 12,300  Level Boston Center
Fri 09:30:59 AM 42.2197 -70.9431 258° West 261 300 15,200 2,600 Climbing Boston Center
Fri 09:31:59 AM 42.1983 -71.0781 258° West 323 372 17,500 1,900 Climbing Boston Center
Fri 09:32:59 AM 42.1828 -71.1794 258° West 345 397 19,000 1,500 Climbing Boston Center
Fri 09:33:59 AM 42.1658 -71.3281 261° West 365 420 20,500 1,450 Climbing Boston Center
Fri 09:34:59 AM 42.1442 -71.4656 258° West 370 426 21,900 1,500 Climbing Boston Center
Fri 09:35:59 AM 42.1181 -71.5978 255° West 370 426 23,500 1,591 Climbing Boston Center
Fri 09:37:11 AM 42.0958 -71.7239 257° West 363 418 25,400 1,409 Climbing Boston Center
Fri 09:38:11 AM 42.0719 -71.8864 259° West 358 412 26,600 1,100 Climbing Boston Center
Fri 09:39:11 AM 42.0328 -72.0069 246° West 358 412 27,600 1,000 Climbing Boston Center
Fri 09:40:11 AM 41.9769 -72.1244 237° Southwest 358 412 28,600 909 Climbing Boston Center
Fri 09:41:23 AM 41.9208 -72.2419 237° Southwest 369 425 29,600 773 Climbing Boston Center
Fri 09:42:23 AM 41.8689 -72.3564 239° Southwest 376 433 30,300 1,045 Climbing Boston Center
Fri 09:43:35 AM 41.7878 -72.5264 237° Southwest 381 438 31,900 773 Climbing Boston Center
Fri 09:44:35 AM 41.7269 -72.6514 237° Southwest 392 451 32,000 50 Climbing Boston Center
Fri 09:45:35 AM 41.6683 -72.7736 237° Southwest 398 458 32,000  Level Boston Center
Fri 09:46:35 AM 41.6097 -72.8981 238° Southwest 398 458 32,000  Level Boston Center
Fri 09:47:35 AM 41.5506 -73.0281 239° Southwest 405 466 32,000  Level Boston Center
Fri 09:48:35 AM 41.4872 -73.1606 237° Southwest 405 466 32,000  Level Boston Center
Fri 09:49:35 AM 41.4261 -73.2872 237° Southwest 405 466 32,000  Level Boston Center
Fri 09:50:35 AM 41.3644 -73.4136 237° Southwest 410 472 32,000  Level Boston Center
Fri 09:52:54 AM 41.2258 -73.6814 236° Southwest 409 471 32,000  Level New York Center
Fri 09:53:53 AM 41.1475 -73.8103 231° Southwest 421 484 32,000  Level New York Center
Fri 09:54:53 AM 41.0800 -73.9256 232° Southwest 421 484 32,000  Level New York Center
Fri 09:55:54 AM 41.0122 -74.0406 232° Southwest 416 479 32,000 -49 Level New York Center
Fri 09:56:55 AM 40.9400 -74.1608 232° Southwest 410 472 31,900 -843 Descending New York Center
Fri 09:57:55 AM 40.8747 -74.2592 229° Southwest 410 472 30,300 -1,932 Descending New York Center
Fri 09:58:53 AM 40.8044 -74.3761 232° Southwest 410 472 28,100 -1,169 Descending New York Center
Fri 09:59:53 AM 40.7342 -74.4928 232° Southwest 415 478 28,000 -50 Descending New York Center
Fri 10:00:53 AM 40.6639 -74.6094 232° Southwest 415 478 28,000  Level New York Center
Fri 10:01:54 AM 40.5892 -74.7228 229° Southwest 415 478 28,000  Level New York Center
Fri 10:02:55 AM 40.5147 -74.8303 228° Southwest 407 468 28,000 -298 Level New York Center
Fri 10:03:55 AM 40.4400 -74.9406 228° Southwest 407 468 27,400 -1,350 Descending New York Center
Fri 10:04:55 AM 40.3633 -75.0475 227° Southwest 402 463 25,300 -2,085 Descending New York Center
Fri 10:05:53 AM 40.2906 -75.1519 228° Southwest 397 457 23,300 -2,017 Descending New York Center
Fri 10:06:54 AM 40.2203 -75.2508 227° Southwest 397 457 21,300 -1,967 Descending New York Center
Fri 10:07:55 AM 40.1517 -75.3522 228° Southwest 392 451 19,300 -1,140 Descending New York Center
Fri 10:08:55 AM 40.0725 -75.4583 226° Southwest 379 436 19,000 -151 Descending New York Center
Fri 10:09:54 AM 40.0108 -75.5436 227° Southwest 374 430 19,000  Level New York Center
Fri 10:10:54 AM 39.9333 -75.6519 227° Southwest 374 430 19,000  Level New York Center
Fri 10:11:52 AM 39.8794 -75.7456 233° Southwest 374 430 19,000 -857 Level New York Center
Fri 10:12:53 AM 39.8181 -75.8656 236° Southwest 374 430 17,300 -1,846 Descending New York Center
Fri 10:16:00 AM 39.7216 -76.0235 237° Southwest  Level FlightAware Approximate
Fri 10:17:17 AM 39.6000 -76.2833 237° Southwest 269 310 9,000  Level Potomac TRACON
Fri 10:19:17 AM 39.4833 -76.4000 218° Southwest 265 305 5,600 -1,379 Descending Potomac TRACON
Fri 10:20:11 AM 39.4167 -76.4333 201° Southwest 264 304 5,000 -842 Descending Potomac TRACON
Fri 10:21:11 AM 39.3500 -76.4500 191° South 260 299 4,000 -1,000 Descending Potomac TRACON
Fri 10:22:11 AM 39.2833 -76.4833 201° Southwest 258 297 3,000 -600 Descending Potomac TRACON
Fri 10:23:11 AM 39.2167 -76.5000 191° South 257 296 2,800 -500 Descending Potomac TRACON
Fri 10:24:11 AM 39.1333 -76.5000 180° South 253 291 2,000 -800 Descending Potomac TRACON

Login

Don't have an account? Register now (free) for customized features, flight alerts, and more!